CheckWX is a tool to help pilots better visualize weather data.  It is not intended as a substitute for an official pre-flight weather briefing.

21:01:59 UTC

KGEU METAR
Glendale Municipal Airport
Glendale, Arizona, USA
Current

14 mins ago

KGEU 172048Z 13004KT 10SM FEW150 34/15 A2989
Observed
Sep-17 @ 20:48 UTC
Wind
  • 130° at 4 KTS
Visibility
10 SM
Flight Rules
VFR
Cloud Levels
  • Few at 15,000' AGL
Temperature
34°C / 93°F
Dewpoint
15°C / 59°F
Humidity
32%
Altimeter
29.89" Hg
Pressure
1012.22 hPa
Previous

1 hour ago

KGEU 171953Z 00000KT 10SM FEW150 33/15 A2991
Observed
Sep-17 @ 19:53 UTC
Visibility
10 SM
Flight Rules
VFR
Cloud Levels
  • Few at 15,000' AGL
Temperature
33°C / 91°F
Dewpoint
15°C / 59°F
Humidity
34%
Altimeter
29.91" Hg
Pressure
1012.92 hPa
Previous

2 hours ago

KGEU 171849Z 10004KT 10SM FEW150 32/16 A2993
Observed
Sep-17 @ 18:49 UTC
Wind
  • 100° at 4 KTS
Visibility
10 SM
Flight Rules
VFR
Cloud Levels
  • Few at 15,000' AGL
Temperature
32°C / 90°F
Dewpoint
16°C / 61°F
Humidity
38%
Altimeter
29.93" Hg
Pressure
1013.52 hPa